Time;durP1;ratioP1;P1;durP2;ratioP2;P2;SDS_P1;SDS_P2;PMS_P1;PMS_P2;Temp;Humidity;BMP_temperature;BMP_pressure;BME280_temperature;BME280_humidity;BME280_pressure;Samples;Min_cycle;Max_cycle;Signal;HPM_P1;HPM_P2
2023/11/03 00:01:16;;;;;;;39.20;19.20;;;;;;;11.10;56.78;99722.73;107524;1261;60980;-66
2023/11/03 00:03:43;;;;;;;38.10;21.10;;;;;;;10.99;56.85;99718.64;107488;1261;60163;-66
2023/11/03 00:06:11;;;;;;;32.50;18.00;;;;;;;10.94;57.08;99719.95;107491;1261;73077;-66
2023/11/03 00:08:38;;;;;;;40.60;24.30;;;;;;;10.87;57.22;99717.80;108183;1254;69141;-66
2023/11/03 00:11:05;;;;;;;49.40;25.60;;;;;;;10.88;57.61;99715.84;108155;1253;72660;-66
2023/11/03 00:13:34;;;;;;;45.20;24.80;;;;;;;10.80;58.00;99708.29;108172;1253;60882;-66
2023/11/03 00:16:02;;;;;;;52.20;28.60;;;;;;;10.79;58.25;99701.83;108102;1254;60064;-66
2023/11/03 00:18:31;;;;;;;45.50;25.20;;;;;;;10.94;58.59;99699.39;108089;1254;73060;-66
2023/11/03 00:21:00;;;;;;;45.20;24.50;;;;;;;11.10;58.34;99700.08;108103;1254;70254;-66
2023/11/03 00:23:27;;;;;;;45.80;24.80;;;;;;;11.20;58.24;99699.61;108094;1254;72657;-66
2023/11/03 00:25:55;;;;;;;43.90;23.70;;;;;;;11.32;58.53;99702.05;108117;1254;59778;-66
2023/11/03 00:28:23;;;;;;;51.30;27.70;;;;;;;11.47;58.33;99708.19;108100;1253;59997;-66
2023/11/03 00:30:51;;;;;;;52.90;30.50;;;;;;;11.56;58.77;99711.07;108135;1254;72030;-66
2023/11/03 00:33:18;;;;;;;47.40;27.30;;;;;;;11.79;58.68;99708.95;108101;1254;69904;-66
2023/11/03 00:35:46;;;;;;;54.10;28.30;;;;;;;11.94;58.05;99708.39;107944;1258;71366;-67
2023/11/03 00:38:15;;;;;;;38.30;21.50;;;;;;;12.03;57.91;99709.92;108077;1257;59838;-66
2023/11/03 00:40:43;;;;;;;41.40;25.30;;;;;;;12.07;57.38;99709.38;108115;1254;59988;-65
2023/11/03 00:43:10;;;;;;;45.80;27.60;;;;;;;11.96;57.41;99704.45;108102;1254;72941;-66
2023/11/03 00:45:38;;;;;;;43.60;25.80;;;;;;;11.86;57.36;99707.52;107946;1254;70324;-65
2023/11/03 00:48:06;;;;;;;47.40;27.70;;;;;;;11.77;57.51;99711.46;108113;1256;72669;-67
2023/11/03 00:50:33;;;;;;;45.10;28.40;;;;;;;11.72;58.20;99709.27;108131;1254;60815;-65
2023/11/03 00:53:01;;;;;;;38.90;25.20;;;;;;;11.86;58.42;99708.60;108141;1253;59986;-64
2023/11/03 00:55:28;;;;;;;46.80;28.60;;;;;;;11.91;58.53;99707.13;108120;1254;73045;-65
2023/11/03 00:57:55;;;;;;;41.20;23.70;;;;;;;11.96;58.56;99705.64;108088;1254;69043;-65
2023/11/03 01:00:28;;;;;;;38.60;26.00;;;;;;;12.02;58.44;99710.85;108030;1254;72656;-68
2023/11/03 01:02:55;;;;;;;42.40;27.50;;;;;;;11.94;58.64;99714.00;107840;1254;59733;-66
2023/11/03 01:05:23;;;;;;;55.10;31.00;;;;;;;11.98;58.56;99713.48;107737;1254;59494;-66
2023/11/03 01:07:52;;;;;;;46.00;28.80;;;;;;;12.05;58.28;99717.89;107898;1254;72338;-67
2023/11/03 01:10:22;;;;;;;50.10;29.60;;;;;;;12.06;58.13;99718.94;107989;1254;68871;-66
2023/11/03 01:12:50;;;;;;;39.20;25.20;;;;;;;12.13;57.75;99722.77;107965;1254;72053;-66
2023/11/03 01:15:19;;;;;;;40.70;27.40;;;;;;;12.26;57.22;99728.48;107956;1257;60027;-65
2023/11/03 01:17:50;;;;;;;38.00;24.80;;;;;;;12.20;56.97;99725.23;108087;1254;59967;-65
2023/11/03 01:20:27;;;;;;;;;;;;;;;12.15;56.83;99722.31;108233;1251;72818;-65
2023/11/03 01:22:56;;;;;;;37.40;24.30;;;;;;;12.15;56.56;99722.52;108259;1251;70121;-66
2023/11/03 01:25:23;;;;;;;38.00;25.30;;;;;;;12.17;56.45;99721.00;108303;1251;70961;-66
2023/11/03 01:27:51;;;;;;;39.00;26.10;;;;;;;12.12;56.67;99722.27;108220;1251;59918;-66
2023/11/03 01:30:20;;;;;;;34.20;22.40;;;;;;;12.15;56.64;99724.77;108296;1251;59992;-66
2023/11/03 01:32:52;;;;;;;44.10;29.10;;;;;;;12.19;56.49;99718.27;108248;1254;73164;-66
2023/11/03 01:35:21;;;;;;;42.50;28.50;;;;;;;12.28;55.99;99719.02;108251;1253;70694;-66
2023/11/03 01:37:48;;;;;;;45.10;29.30;;;;;;;12.31;55.73;99717.63;108222;1253;72700;-66
2023/11/03 01:40:16;;;;;;;42.30;26.00;;;;;;;12.27;56.04;99716.64;108172;1253;60842;-65
2023/11/03 01:42:43;;;;;;;41.60;26.10;;;;;;;12.10;56.76;99718.20;108091;1254;59978;-65
2023/11/03 01:45:11;;;;;;;36.40;22.80;;;;;;;12.00;57.36;99717.98;108232;1254;72417;-66
2023/11/03 01:47:38;;;;;;;39.10;25.80;;;;;;;12.09;56.82;99713.30;108253;1254;69642;-65
2023/11/03 01:50:07;;;;;;;40.40;24.70;;;;;;;12.18;56.56;99713.20;108272;1253;70777;-67
2023/11/03 01:52:35;;;;;;;33.50;22.20;;;;;;;12.19;56.43;99703.81;108114;1251;60817;-66
2023/11/03 01:55:03;;;;;;;33.00;23.30;;;;;;;12.29;55.80;99710.88;108074;1253;60023;-66
2023/11/03 01:57:30;;;;;;;34.30;21.80;;;;;;;12.25;55.84;99713.73;108135;1253;71827;-65
2023/11/03 01:59:58;;;;;;;36.00;23.70;;;;;;;12.21;55.80;99716.74;108119;1254;69042;-66
2023/11/03 02:02:28;;;;;;;32.50;20.30;;;;;;;12.13;56.14;99715.90;108129;1253;72015;-66
2023/11/03 02:04:56;;;;;;;33.40;21.20;;;;;;;12.11;56.32;99719.70;108150;1253;60969;-66
2023/11/03 02:07:24;;;;;;;32.00;19.00;;;;;;;12.15;56.11;99721.77;108221;1253;59523;-66
2023/11/03 02:09:52;;;;;;;35.00;21.30;;;;;;;12.19;56.18;99723.36;108161;1253;71649;-67
2023/11/03 02:12:19;;;;;;;32.60;21.00;;;;;;;12.02;56.50;99723.67;108197;1253;68795;-67
2023/11/03 02:14:49;;;;;;;36.00;22.10;;;;;;;11.83;56.82;99727.89;108081;1253;71767;-67
2023/11/03 02:17:20;;;;;;;27.90;18.30;;;;;;;11.77;56.85;99729.08;108059;1253;60813;-64
2023/11/03 02:19:48;;;;;;;31.10;19.60;;;;;;;11.73;56.99;99723.65;108170;1254;60050;-65
2023/11/03 02:22:15;;;;;;;28.90;17.80;;;;;;;11.71;57.49;99723.56;107991;1254;73076;-66
2023/11/03 02:24:43;;;;;;;31.30;19.80;;;;;;;11.69;57.82;99725.98;108310;1253;70241;-67
2023/11/03 02:27:11;;;;;;;27.10;17.90;;;;;;;11.66;57.90;99726.25;108192;1254;71455;-65
2023/11/03 02:29:38;;;;;;;26.90;17.30;;;;;;;11.60;58.20;99727.59;108172;1253;61488;-66
2023/11/03 02:32:06;;;;;;;29.50;18.90;;;;;;;11.62;58.94;99731.23;108089;1253;59645;-66
2023/11/03 02:34:33;;;;;;;29.20;17.70;;;;;;;11.81;58.58;99737.86;108107;1252;72040;-66
2023/11/03 02:37:01;;;;;;;28.80;17.90;;;;;;;11.91;58.37;99743.02;108208;1253;68981;-66
2023/11/03 02:39:28;;;;;;;30.70;17.40;;;;;;;11.92;58.32;99741.42;108241;1253;72750;-66
2023/11/03 02:41:55;;;;;;;25.20;16.20;;;;;;;11.97;58.10;99734.66;108122;1254;59604;-65
2023/11/03 02:44:23;;;;;;;31.50;18.30;;;;;;;11.98;57.77;99726.71;108217;1252;60096;-65
2023/11/03 02:46:51;;;;;;;30.50;19.70;;;;;;;11.95;57.50;99725.03;108184;1254;71223;-66
2023/11/03 02:49:18;;;;;;;42.20;20.10;;;;;;;11.89;57.38;99720.94;108181;1254;70330;-67
2023/11/03 02:51:45;;;;;;;33.40;18.70;;;;;;;11.76;57.68;99722.95;108151;1254;71659;-66
2023/11/03 02:54:14;;;;;;;32.90;19.10;;;;;;;11.84;57.70;99716.95;108179;1253;60872;-66
2023/11/03 02:56:42;;;;;;;31.30;19.90;;;;;;;11.99;57.19;99717.83;108322;1256;60055;-66
2023/11/03 02:59:09;;;;;;;36.90;21.30;;;;;;;11.99;57.23;99718.18;108232;1251;73145;-65
2023/11/03 03:01:39;;;;;;;38.70;22.20;;;;;;;11.87;57.73;99728.79;108295;1251;69200;-66
2023/11/03 03:04:06;;;;;;;37.60;22.20;;;;;;;11.98;57.38;99734.25;108312;1251;71925;-66
2023/11/03 03:06:35;;;;;;;29.00;18.00;;;;;;;12.08;57.01;99735.16;108331;1251;60815;-68
2023/11/03 03:09:02;;;;;;;28.20;17.00;;;;;;;12.12;56.76;99737.46;108322;1251;59275;-65
2023/11/03 03:11:30;;;;;;;33.00;20.00;;;;;;;12.12;56.40;99739.52;108243;1251;72046;-64
2023/11/03 03:13:57;;;;;;;29.30;19.30;;;;;;;12.03;56.52;99733.87;108301;1251;70301;-65
2023/11/03 03:16:25;;;;;;;34.60;23.30;;;;;;;11.98;56.73;99732.31;108316;1256;71393;-65
2023/11/03 03:18:52;;;;;;;33.90;22.90;;;;;;;11.91;56.84;99731.77;108323;1256;59567;-65
2023/11/03 03:21:21;;;;;;;31.80;19.10;;;;;;;11.99;56.34;99731.02;108264;1251;59999;-65
2023/11/03 03:23:49;;;;;;;35.60;22.60;;;;;;;11.73;56.69;99730.14;108310;1250;75211;-64
2023/11/03 03:26:16;;;;;;;32.10;21.60;;;;;;;11.68;56.79;99729.70;108298;1256;70734;-66
2023/11/03 03:28:44;;;;;;;41.30;27.40;;;;;;;11.77;56.67;99733.84;108273;1251;72644;-66
2023/11/03 03:31:11;;;;;;;36.20;25.40;;;;;;;11.80;56.70;99733.33;108235;1251;60870;-65
2023/11/03 03:33:39;;;;;;;37.50;24.00;;;;;;;11.72;56.67;99726.70;108205;1251;59926;-65
2023/11/03 03:36:07;;;;;;;40.20;27.70;;;;;;;11.65;56.87;99725.26;108306;1251;72191;-66
2023/11/03 03:38:35;;;;;;;33.30;23.80;;;;;;;11.63;56.81;99725.00;108344;1251;68900;-66
2023/11/03 03:41:03;;;;;;;35.40;23.50;;;;;;;11.63;56.83;99727.64;108292;1251;71671;-66
2023/11/03 03:43:30;;;;;;;37.30;26.90;;;;;;;11.61;56.73;99726.14;108281;1256;60405;-66
2023/11/03 03:45:57;;;;;;;34.10;24.00;;;;;;;11.57;56.75;99723.16;108323;1251;61249;-66
2023/11/03 03:48:26;;;;;;;43.70;28.90;;;;;;;11.48;56.92;99724.30;108327;1252;72636;-66
2023/11/03 03:50:53;;;;;;;41.10;27.90;;;;;;;11.48;56.95;99727.98;108341;1251;68956;-66
2023/11/03 03:53:21;;;;;;;41.60;27.40;;;;;;;11.44;56.98;99729.57;108198;1255;71727;-66
2023/11/03 03:55:48;;;;;;;48.10;29.50;;;;;;;11.53;56.74;99726.33;108292;1253;60321;-66
2023/11/03 03:58:15;;;;;;;33.20;23.80;;;;;;;11.68;56.45;99723.35;108182;1251;60296;-66
2023/11/03 04:00:43;;;;;;;40.70;26.50;;;;;;;11.69;56.48;99722.80;108240;1253;72843;-66
2023/11/03 04:03:10;;;;;;;43.60;29.40;;;;;;;11.58;56.88;99723.14;108156;1253;70810;-66
2023/11/03 04:05:38;;;;;;;35.50;23.90;;;;;;;11.63;56.73;99720.46;108171;1252;73115;-66
2023/11/03 04:08:05;;;;;;;43.20;29.00;;;;;;;11.54;56.75;99717.67;108119;1254;60437;-66
2023/11/03 04:10:32;;;;;;;40.20;27.50;;;;;;;11.55;56.85;99711.48;108228;1254;60312;-66
2023/11/03 04:13:00;;;;;;;42.90;28.00;;;;;;;11.58;56.76;99705.73;108183;1252;74998;-66
2023/11/03 04:15:27;;;;;;;48.00;29.70;;;;;;;11.53;57.05;99706.11;108160;1254;68560;-66
2023/11/03 04:17:54;;;;;;;46.80;30.50;;;;;;;11.59;57.27;99708.52;108202;1256;72656;-67
2023/11/03 04:20:22;;;;;;;50.40;31.00;;;;;;;11.65;57.17;99705.06;108215;1253;61132;-65
2023/11/03 04:22:50;;;;;;;47.80;29.50;;;;;;;11.64;57.06;99705.27;108182;1253;60303;-66
2023/11/03 04:25:17;;;;;;;47.50;31.20;;;;;;;11.71;57.04;99706.33;108243;1254;72409;-66
2023/11/03 04:27:45;;;;;;;53.60;32.60;;;;;;;11.74;56.66;99706.20;108150;1254;69428;-67
2023/11/03 04:30:12;;;;;;;40.30;25.50;;;;;;;11.70;56.99;99704.60;108135;1254;72689;-66
2023/11/03 04:32:40;;;;;;;39.60;25.30;;;;;;;11.81;57.31;99708.31;108112;1253;60293;-65
2023/11/03 04:35:08;;;;;;;45.50;27.60;;;;;;;11.90;57.22;99709.29;108103;1254;60318;-68
2023/11/03 04:37:35;;;;;;;39.80;26.20;;;;;;;11.93;57.20;99710.56;108094;1254;72920;-66
2023/11/03 04:40:04;;;;;;;39.10;24.90;;;;;;;11.88;57.66;99707.27;108148;1254;70958;-67
2023/11/03 04:42:31;;;;;;;38.40;24.60;;;;;;;11.90;58.00;99711.23;108143;1253;73310;-67
2023/11/03 04:44:58;;;;;;;40.40;24.90;;;;;;;11.91;58.01;99706.80;108141;1254;60329;-66
2023/11/03 04:47:26;;;;;;;38.70;26.10;;;;;;;11.92;58.10;99709.36;108074;1254;60319;-66
2023/11/03 04:49:53;;;;;;;37.60;26.10;;;;;;;11.95;58.10;99705.53;108115;1254;73869;-66
2023/11/03 04:56:21;;;;;;;42.00;26.60;;;;;;;12.05;57.86;99703.45;108102;1253;71147;-67
2023/11/03 04:58:50;;;;;;;38.30;24.00;;;;;;;12.05;57.85;99698.20;108058;1253;60639;-68
2023/11/03 05:01:19;;;;;;;38.70;24.30;;;;;;;12.06;57.60;99696.02;108030;1254;60534;-65
2023/11/03 05:03:47;;;;;;;40.10;26.20;;;;;;;12.12;57.35;99693.78;108051;1253;72914;-66
2023/11/03 05:06:14;;;;;;;42.80;28.60;;;;;;;12.11;57.41;99689.80;108031;1253;70596;-66
2023/11/03 05:08:41;;;;;;;42.70;28.80;;;;;;;12.05;57.59;99689.20;108069;1256;72635;-66
2023/11/03 05:11:10;;;;;;;43.40;29.10;;;;;;;12.14;57.29;99694.55;108073;1254;60861;-66
2023/11/03 05:13:41;;;;;;;48.00;32.00;;;;;;;12.10;57.36;99696.88;108060;1253;60303;-67
2023/11/03 05:16:08;;;;;;;42.00;28.40;;;;;;;12.22;57.04;99704.36;108099;1254;73910;-67
2023/11/03 05:18:35;;;;;;;37.70;27.10;;;;;;;12.20;56.99;99711.54;107937;1259;69974;-67
2023/11/03 05:21:03;;;;;;;38.00;27.10;;;;;;;12.21;56.98;99716.35;107967;1254;72491;-66
2023/11/03 05:23:31;;;;;;;40.20;26.70;;;;;;;12.29;56.59;99713.89;107992;1254;60886;-67
2023/11/03 05:25:58;;;;;;;43.60;27.70;;;;;;;12.32;56.28;99719.50;108029;1256;61086;-66
2023/11/03 05:28:25;;;;;;;42.00;28.70;;;;;;;12.28;56.14;99719.37;107994;1254;73727;-66
2023/11/03 05:30:54;;;;;;;38.10;24.60;;;;;;;12.36;55.97;99719.69;107948;1258;69893;-66
2023/11/03 05:33:21;;;;;;;41.60;26.50;;;;;;;12.25;56.07;99717.77;107921;1254;72328;-66
2023/11/03 05:35:49;;;;;;;42.40;25.10;;;;;;;12.26;56.18;99715.05;107889;1253;60895;-66
2023/11/03 05:38:19;;;;;;;39.00;25.20;;;;;;;12.34;55.87;99716.60;108026;1254;58432;-66
2023/11/03 05:40:46;;;;;;;38.00;21.30;;;;;;;12.21;55.97;99722.16;108072;1254;73871;-67
2023/11/03 05:43:14;;;;;;;29.20;18.00;;;;;;;12.12;56.15;99728.48;108115;1254;70020;-67
2023/11/03 05:45:41;;;;;;;31.00;18.10;;;;;;;12.00;56.25;99728.70;108060;1255;72643;-67
2023/11/03 05:48:09;;;;;;;30.60;18.60;;;;;;;12.06;56.10;99730.19;108254;1254;60904;-67
2023/11/03 05:50:36;;;;;;;28.40;17.70;;;;;;;12.13;55.91;99733.86;108179;1254;60282;-66
2023/11/03 05:53:03;;;;;;;26.60;17.40;;;;;;;12.37;55.34;99731.41;108172;1252;74312;-66
2023/11/03 05:55:31;;;;;;;31.10;18.40;;;;;;;12.54;55.88;99727.41;108227;1254;70375;-66
2023/11/03 05:57:58;;;;;;;25.80;15.70;;;;;;;12.96;55.70;99729.27;108192;1253;72405;-67
2023/11/03 06:00:28;;;;;;;27.20;16.30;;;;;;;13.63;54.97;99730.56;108198;1253;60294;-66
2023/11/03 06:02:56;;;;;;;25.90;15.50;;;;;;;14.18;53.83;99727.10;108105;1252;60306;-67
2023/11/03 06:05:23;;;;;;;24.30;14.80;;;;;;;14.71;52.48;99723.44;108123;1253;72919;-66
2023/11/03 06:07:51;;;;;;;22.90;13.50;;;;;;;15.19;50.66;99715.71;108157;1254;69957;-67
2023/11/03 06:10:19;;;;;;;22.40;12.70;;;;;;;15.58;49.16;99716.09;108003;1254;70794;-66
2023/11/03 06:12:46;;;;;;;20.50;12.10;;;;;;;16.07;47.98;99712.54;108028;1252;60479;-66
2023/11/03 06:15:14;;;;;;;20.90;12.30;;;;;;;16.54;46.95;99709.73;108042;1253;60287;-68
2023/11/03 06:17:41;;;;;;;18.00;12.00;;;;;;;16.79;45.84;99709.09;108091;1254;72777;-66
2023/11/03 06:20:10;;;;;;;17.30;11.60;;;;;;;17.16;45.70;99706.17;108069;1254;70295;-67
2023/11/03 06:22:37;;;;;;;18.20;11.40;;;;;;;17.56;44.23;99700.48;108102;1254;71417;-67
2023/11/03 06:25:05;;;;;;;17.00;11.90;;;;;;;17.95;44.05;99699.92;108029;1253;61878;-67
2023/11/03 06:27:32;;;;;;;15.40;11.00;;;;;;;18.43;44.04;99696.14;108074;1254;60287;-67
2023/11/03 06:30:00;;;;;;;17.60;11.40;;;;;;;18.95;41.75;99691.27;108059;1254;72659;-66
2023/11/03 06:32:27;;;;;;;16.20;11.00;;;;;;;19.32;42.02;99687.77;108111;1254;70447;-67
2023/11/03 06:34:55;;;;;;;18.50;12.40;;;;;;;19.94;40.68;99682.35;108225;1255;72402;-67
2023/11/03 06:37:23;;;;;;;19.00;11.40;;;;;;;20.27;39.25;99681.20;108188;1254;60394;-66
2023/11/03 06:39:53;;;;;;;26.30;16.10;;;;;;;20.48;38.85;99675.55;108301;1252;60306;-67
2023/11/03 06:42:20;;;;;;;18.10;12.30;;;;;;;20.75;38.74;99682.86;108202;1254;72613;-67
2023/11/03 06:44:48;;;;;;;31.40;18.70;;;;;;;21.15;37.67;99679.34;108255;1256;70085;-67
2023/11/03 06:47:15;;;;;;;27.60;19.30;;;;;;;21.38;37.00;99678.41;108204;1254;72423;-67
2023/11/03 06:49:46;;;;;;;29.50;18.10;;;;;;;21.64;36.98;99682.18;108133;1254;60299;-68
2023/11/03 06:52:14;;;;;;;24.60;15.40;;;;;;;22.11;36.89;99682.75;108197;1254;60431;-68
2023/11/03 06:54:43;;;;;;;24.10;15.30;;;;;;;22.61;35.50;99675.81;108244;1254;73117;-68
2023/11/03 06:57:11;;;;;;;18.30;13.30;;;;;;;22.85;34.24;99671.14;108167;1253;70320;-67
2023/11/03 06:59:38;;;;;;;16.90;11.70;;;;;;;23.07;34.04;99671.22;108293;1256;72610;-68
2023/11/03 07:02:05;;;;;;;14.60;10.60;;;;;;;23.15;33.81;99666.33;108282;1251;60301;-67
2023/11/03 07:04:34;;;;;;;16.50;11.60;;;;;;;23.49;33.20;99668.05;108327;1251;61000;-67
2023/11/03 07:07:04;;;;;;;16.40;10.30;;;;;;;23.80;33.37;99661.95;108296;1256;73800;-67
2023/11/03 07:09:32;;;;;;;16.40;11.50;;;;;;;24.07;31.95;99658.38;108292;1251;69310;-67
2023/11/03 07:12:02;;;;;;;19.40;11.90;;;;;;;24.28;32.45;99659.21;108202;1256;74447;-67
2023/11/03 07:14:31;;;;;;;16.00;11.10;;;;;;;24.58;31.33;99658.22;108246;1251;61043;-68
2023/11/03 07:16:58;;;;;;;15.50;10.30;;;;;;;24.42;31.04;99665.21;108310;1256;60525;-67
2023/11/03 07:19:25;;;;;;;12.70;9.70;;;;;;;24.33;31.52;99665.02;108293;1251;72724;-67
2023/11/03 07:21:57;;;;;;;13.40;9.60;;;;;;;24.79;31.27;99662.54;108310;1251;69398;-67
2023/11/03 07:24:26;;;;;;;19.50;10.80;;;;;;;25.25;31.12;99668.69;108304;1251;72382;-68
2023/11/03 07:26:53;;;;;;;11.40;9.00;;;;;;;25.50;30.33;99669.82;108277;1251;60434;-67
2023/11/03 07:29:21;;;;;;;13.50;10.30;;;;;;;25.44;29.84;99669.52;108337;1251;60194;-68
2023/11/03 07:31:48;;;;;;;14.20;10.30;;;;;;;25.29;30.00;99666.48;108355;1252;72544;-68
2023/11/03 07:34:18;;;;;;;12.00;8.80;;;;;;;25.32;29.73;99665.34;108388;1251;70161;-67
2023/11/03 07:36:46;;;;;;;17.00;10.50;;;;;;;25.03;30.46;99667.00;108334;1251;72647;-67
2023/11/03 07:39:14;;;;;;;10.90;8.70;;;;;;;25.21;30.43;99669.05;108301;1251;59119;-67
2023/11/03 07:41:42;;;;;;;12.10;8.10;;;;;;;25.50;29.77;99673.02;108338;1250;60313;-67
2023/11/03 07:44:11;;;;;;;12.00;8.20;;;;;;;25.61;29.83;99676.08;108280;1251;73818;-67
2023/11/03 07:46:38;;;;;;;12.20;8.60;;;;;;;25.66;29.69;99676.90;108289;1251;72232;-67
2023/11/03 07:49:06;;;;;;;11.90;8.20;;;;;;;25.42;29.70;99679.23;108336;1251;72178;-67
2023/11/03 07:51:34;;;;;;;16.80;9.40;;;;;;;25.67;29.78;99680.54;108345;1254;60412;-67
2023/11/03 07:54:02;;;;;;;12.90;8.20;;;;;;;25.71;29.34;99681.05;108218;1252;60280;-67
2023/11/03 07:56:32;;;;;;;13.90;8.80;;;;;;;25.81;29.26;99685.50;108299;1251;73912;-67
2023/11/03 07:59:03;;;;;;;13.90;8.10;;;;;;;25.90;29.19;99686.13;108334;1251;70069;-68
2023/11/03 08:01:31;;;;;;;13.30;8.50;;;;;;;25.96;28.76;99689.08;108342;1251;72668;-68
2023/11/03 08:03:58;;;;;;;11.30;7.60;;;;;;;25.89;28.87;99685.95;108323;1257;60536;-66
2023/11/03 08:06:27;;;;;;;17.10;8.00;;;;;;;25.60;29.24;99688.78;108316;1251;60293;-67
2023/11/03 08:08:54;;;;;;;11.70;7.50;;;;;;;25.79;29.05;99688.59;108289;1251;73903;-68
2023/11/03 08:11:22;;;;;;;12.40;7.40;;;;;;;25.68;29.62;99688.50;108353;1251;69115;-68
2023/11/03 08:13:50;;;;;;;12.80;7.00;;;;;;;25.96;28.84;99696.27;108313;1252;72632;-67
2023/11/03 08:16:17;;;;;;;10.50;7.10;;;;;;;25.84;28.97;99691.70;108293;1251;60375;-68
2023/11/03 08:18:45;;;;;;;12.20;7.80;;;;;;;25.82;29.28;99685.89;108290;1251;59225;-67
2023/11/03 08:21:13;;;;;;;8.70;7.30;;;;;;;26.08;28.84;99687.24;108304;1256;73808;-68
2023/11/03 08:23:41;;;;;;;12.00;7.10;;;;;;;26.20;28.29;99696.73;108423;1256;70466;-67
2023/11/03 08:26:11;;;;;;;14.80;7.60;;;;;;;25.59;28.84;99684.25;108124;1256;72751;-66
2023/11/03 08:28:38;;;;;;;12.40;7.00;;;;;;;25.41;29.33;99678.45;108280;1251;60456;-68
2023/11/03 08:31:05;;;;;;;11.60;7.40;;;;;;;25.63;28.82;99679.15;108295;1251;60385;-67
2023/11/03 08:33:33;;;;;;;12.60;7.10;;;;;;;25.67;29.04;99674.73;108373;1256;73866;-67
2023/11/03 08:36:00;;;;;;;15.40;6.90;;;;;;;25.49;28.80;99673.23;108308;1251;70946;-66
2023/11/03 08:38:28;;;;;;;10.60;6.80;;;;;;;25.07;29.56;99668.21;108359;1251;71422;-68
2023/11/03 08:40:55;;;;;;;14.20;7.30;;;;;;;24.92;29.67;99667.41;108400;1251;60443;-68
2023/11/03 08:43:23;;;;;;;10.00;6.70;;;;;;;25.25;29.37;99669.86;108148;1251;60312;-67
2023/11/03 08:45:50;;;;;;;11.00;6.20;;;;;;;25.58;28.59;99662.23;108356;1251;73888;-68
2023/11/03 08:48:18;;;;;;;8.70;6.20;;;;;;;25.80;28.19;99659.77;108387;1251;70388;-67
2023/11/03 08:50:47;;;;;;;9.40;5.90;;;;;;;25.79;27.97;99647.73;108332;1251;71374;-67
2023/11/03 08:53:15;;;;;;;12.80;6.20;;;;;;;26.24;27.50;99638.27;108317;1255;60303;-67
2023/11/03 08:55:42;;;;;;;8.60;5.80;;;;;;;25.98;27.40;99637.20;108294;1257;60304;-67
2023/11/03 08:58:10;;;;;;;11.30;6.10;;;;;;;25.60;28.25;99635.77;108307;1257;73921;-67
2023/11/03 09:00:54;;;;;;;11.00;5.80;;;;;;;25.88;27.95;99631.33;108311;1251;70060;-68
2023/11/03 09:03:22;;;;;;;11.30;6.40;;;;;;;25.86;28.11;99633.17;108280;1256;72590;-67
2023/11/03 09:05:50;;;;;;;10.60;5.30;;;;;;;26.08;27.76;99636.23;108150;1251;60538;-67
2023/11/03 09:08:18;;;;;;;8.90;5.70;;;;;;;26.16;27.57;99629.69;108188;1256;60965;-67
2023/11/03 09:10:45;;;;;;;8.50;6.00;;;;;;;25.83;27.76;99640.93;108208;1251;72738;-68
2023/11/03 09:13:15;;;;;;;14.00;6.90;;;;;;;26.00;27.88;99633.98;108302;1251;69605;-67
2023/11/03 09:15:47;;;;;;;9.40;6.30;;;;;;;26.17;27.94;99619.67;108267;1254;72979;-68
2023/11/03 09:18:18;;;;;;;8.10;6.10;;;;;;;26.76;27.24;99613.27;108241;1251;60661;-66
2023/11/03 09:20:47;;;;;;;8.50;5.30;;;;;;;26.39;27.52;99612.55;108238;1256;60342;-67
2023/11/03 09:23:15;;;;;;;9.10;5.60;;;;;;;26.33;27.78;99602.81;108245;1251;75321;-68
2023/11/03 09:25:42;;;;;;;7.60;5.50;;;;;;;26.42;27.20;99605.11;108375;1257;70044;-70
2023/11/03 09:28:10;;;;;;;8.30;6.40;;;;;;;25.89;28.07;99603.35;108339;1254;72428;-67
2023/11/03 09:30:38;;;;;;;11.70;6.40;;;;;;;26.19;27.83;99596.70;108202;1256;60427;-67
2023/11/03 09:33:07;;;;;;;9.30;6.70;;;;;;;26.07;27.77;99594.55;108116;1251;60412;-67
2023/11/03 09:35:35;;;;;;;9.10;6.00;;;;;;;25.80;28.22;99594.98;108182;1257;74441;-67
2023/11/03 09:38:03;;;;;;;7.10;5.70;;;;;;;25.75;28.38;99590.48;108158;1251;70374;-66
2023/11/03 09:40:34;;;;;;;10.40;6.10;;;;;;;25.85;28.40;99585.30;108239;1256;71405;-67
2023/11/03 09:43:03;;;;;;;8.10;5.80;;;;;;;26.33;28.06;99581.36;108154;1254;60251;-68
2023/11/03 09:45:33;;;;;;;8.90;5.10;;;;;;;26.52;27.30;99575.86;108201;1256;61516;-67
2023/11/03 09:48:00;;;;;;;7.70;5.30;;;;;;;26.55;27.07;99575.20;108111;1257;73794;-69
2023/11/03 09:50:28;;;;;;;10.90;5.50;;;;;;;26.84;26.89;99573.74;108068;1251;70755;-67
2023/11/03 09:52:55;;;;;;;5.90;4.70;;;;;;;26.99;26.03;99575.95;108032;1251;72911;-67
2023/11/03 09:55:23;;;;;;;4.90;4.00;;;;;;;26.71;26.51;99578.76;107929;1251;60327;-68
2023/11/03 09:57:55;;;;;;;8.20;4.60;;;;;;;26.52;26.57;99572.83;108107;1251;60555;-68
2023/11/03 10:00:23;;;;;;;7.40;4.30;;;;;;;26.52;26.51;99573.52;108340;1251;72760;-68
2023/11/03 10:02:50;;;;;;;7.70;4.40;;;;;;;26.22;26.70;99565.77;108228;1258;69188;-67
2023/11/03 10:05:18;;;;;;;9.30;5.00;;;;;;;25.45;27.31;99572.18;108309;1251;72989;-67
2023/11/03 10:07:54;;;;;;;7.00;4.20;;;;;;;25.45;27.93;99568.11;108283;1251;61896;-67
2023/11/03 10:10:22;;;;;;;5.50;4.20;;;;;;;25.61;27.36;99563.02;108350;1251;60300;-67
2023/11/03 10:12:49;;;;;;;5.90;4.30;;;;;;;25.70;27.45;99560.79;108352;1251;74069;-68
2023/11/03 10:15:17;;;;;;;7.60;4.70;;;;;;;26.01;27.13;99565.88;108397;1251;72594;-68
2023/11/03 10:17:47;;;;;;;8.00;5.20;;;;;;;26.38;26.50;99564.52;108332;1251;72456;-68
2023/11/03 10:20:20;;;;;;;7.90;5.30;;;;;;;26.32;26.70;99563.59;108281;1251;60268;-67
2023/11/03 10:22:48;;;;;;;10.30;5.20;;;;;;;26.29;26.92;99560.95;108424;1256;60129;-68
2023/11/03 10:25:16;;;;;;;9.60;5.30;;;;;;;25.45;28.02;99561.63;108359;1257;76811;-68
2023/11/03 10:27:49;;;;;;;8.60;5.10;;;;;;;25.78;27.89;99555.80;108417;1256;70808;-68
2023/11/03 10:30:21;;;;;;;8.90;5.90;;;;;;;26.17;27.56;99552.30;108311;1257;74101;-68
2023/11/03 10:32:48;;;;;;;10.30;5.90;;;;;;;26.33;27.17;99548.16;108401;1251;60520;-68
2023/11/03 10:35:16;;;;;;;8.80;6.50;;;;;;;26.17;27.03;99551.36;108414;1250;60935;-68
2023/11/03 10:37:46;;;;;;;10.10;5.70;;;;;;;26.05;27.51;99546.92;108381;1253;73947;-66
2023/11/03 10:40:13;;;;;;;9.80;5.90;;;;;;;26.47;26.98;99547.32;108168;1251;70531;-67
2023/11/03 10:42:44;;;;;;;11.60;6.30;;;;;;;26.81;26.61;99542.14;108376;1251;71421;-67
2023/11/03 10:45:13;;;;;;;11.70;6.10;;;;;;;26.85;26.44;99538.68;108210;1251;60295;-67
2023/11/03 10:48:21;;;;;;;12.60;6.80;;;;;;;26.64;26.50;99541.98;108429;1251;60302;-68
2023/11/03 10:51:09;;;;;;;12.50;6.40;;;;;;;26.67;26.40;99534.38;108344;1251;72076;-67
2023/11/03 10:53:41;;;;;;;13.00;6.00;;;;;;;26.18;26.78;99535.58;108329;1251;72532;-69
2023/11/03 10:56:10;;;;;;;8.90;5.50;;;;;;;26.11;26.57;99535.08;108207;1257;72693;-66
2023/11/03 10:58:57;;;;;;;7.30;5.30;;;;;;;26.10;26.57;99516.66;108236;1251;61360;-67
2023/11/03 11:01:48;;;;;;;8.00;5.30;;;;;;;25.89;26.86;99521.75;108158;1251;62312;-67
2023/11/03 11:04:18;;;;;;;6.60;5.10;;;;;;;25.84;26.63;99510.77;108388;1256;73936;-67
2023/11/03 11:07:02;;;;;;;6.60;4.50;;;;;;;26.00;26.92;99511.99;108279;1251;70670;-67
2023/11/03 11:09:52;;;;;;;7.20;5.50;;;;;;;25.96;27.00;99508.14;108322;1251;72841;-66
2023/11/03 11:12:19;;;;;;;7.90;5.60;;;;;;;26.28;26.18;99504.29;108358;1251;60302;-68
2023/11/03 11:14:48;;;;;;;10.20;6.10;;;;;;;26.10;26.32;99506.45;108328;1251;60428;-67
2023/11/03 11:17:34;;;;;;;11.20;6.40;;;;;;;26.11;26.49;99510.05;108310;1251;72695;-66
2023/11/03 11:20:10;;;;;;;8.50;5.30;;;;;;;25.91;27.04;99505.34;108317;1251;70548;-66
2023/11/03 11:22:39;;;;;;;10.70;6.50;;;;;;;26.19;26.75;99505.26;108276;1251;72748;-67
2023/11/03 11:25:10;;;;;;;11.20;7.30;;;;;;;25.99;27.31;99503.72;108229;1251;60429;-68